createdAt,value
2022-08-04T00:01:48.573Z,3.10
2022-08-04T00:07:16.130Z,3.38
2022-08-04T00:12:19.529Z,2.42
2022-08-04T00:17:26.882Z,3.10
2022-08-04T00:22:30.432Z,3.22
2022-08-04T00:27:33.153Z,3.40
2022-08-04T00:32:41.379Z,3.70
2022-08-04T00:37:47.263Z,3.85
2022-08-04T00:42:59.473Z,3.90
2022-08-04T00:48:22.465Z,3.63
2022-08-04T00:53:55.389Z,3.78
2022-08-04T00:59:07.242Z,3.63
2022-08-04T01:04:22.224Z,2.97
2022-08-04T01:09:33.448Z,3.95
2022-08-04T01:14:59.053Z,3.28
2022-08-04T01:20:08.356Z,3.03
2022-08-04T01:25:38.497Z,3.28
2022-08-04T01:30:44.532Z,2.97
2022-08-04T01:35:56.515Z,3.00
2022-08-04T01:41:03.377Z,3.28
2022-08-04T01:46:05.753Z,3.58
2022-08-04T01:51:09.791Z,3.23
2022-08-04T01:56:12.670Z,3.70
2022-08-04T02:01:14.501Z,3.20
2022-08-04T02:06:31.759Z,3.53
2022-08-04T02:11:33.866Z,3.40
2022-08-04T02:16:46.992Z,3.13
2022-08-04T02:22:06.928Z,3.47
2022-08-04T02:27:10.905Z,3.22
2022-08-04T02:32:26.618Z,3.67
2022-08-04T02:37:34.529Z,3.33
2022-08-04T02:42:37.633Z,3.42
2022-08-04T02:48:08.028Z,3.35
2022-08-04T02:53:04.377Z,3.92
2022-08-04T02:58:15.208Z,3.90
2022-08-04T03:03:48.545Z,3.72
2022-08-04T03:09:27.828Z,3.70
2022-08-04T03:14:58.132Z,3.92
2022-08-04T03:20:37.647Z,3.47
2022-08-04T03:26:01.239Z,3.40
2022-08-04T03:31:36.273Z,3.40
2022-08-04T03:37:12.119Z,3.97
2022-08-04T03:42:25.806Z,3.40
2022-08-04T03:47:48.625Z,3.60
2022-08-04T03:53:17.964Z,3.60
2022-08-04T03:58:46.776Z,4.00
2022-08-04T04:04:26.791Z,3.42
2022-08-04T04:09:53.887Z,3.60
2022-08-04T04:15:14.326Z,4.00
2022-08-04T04:20:54.617Z,4.05
2022-08-04T04:26:30.141Z,3.83
2022-08-04T04:31:51.433Z,4.07
2022-08-04T04:37:48.631Z,4.20
2022-08-04T04:43:09.686Z,4.45
2022-08-04T04:48:20.429Z,4.10
2022-08-04T04:53:49.955Z,4.35
2022-08-04T04:58:56.250Z,4.30
2022-08-04T05:04:11.813Z,4.40
2022-08-04T05:09:43.810Z,4.75
2022-08-04T05:14:49.178Z,4.45
2022-08-04T05:20:07.453Z,4.72
2022-08-04T05:25:20.380Z,4.60
2022-08-04T05:30:26.184Z,4.55
2022-08-04T05:35:52.910Z,4.35
2022-08-04T05:40:55.953Z,4.60
2022-08-04T05:46:01.825Z,4.80
2022-08-04T05:51:05.653Z,4.15
2022-08-04T05:56:11.699Z,4.43
2022-08-04T06:01:17.186Z,4.22
2022-08-04T06:06:21.098Z,4.20
2022-08-04T06:11:23.390Z,4.82
2022-08-04T06:16:30.856Z,3.60
2022-08-04T06:21:35.028Z,4.28
2022-08-04T06:26:37.769Z,4.15
2022-08-04T06:32:26.714Z,4.07
2022-08-04T06:37:23.227Z,3.55
2022-08-04T06:42:44.444Z,3.95
2022-08-04T06:47:53.855Z,4.03
2022-08-04T06:52:55.607Z,3.85
2022-08-04T06:58:02.811Z,3.75
2022-08-04T07:03:07.141Z,3.95
2022-08-04T07:08:11.590Z,4.27
2022-08-04T07:13:14.655Z,4.18
2022-08-04T07:18:20.152Z,3.72
2022-08-04T07:23:26.372Z,3.83
2022-08-04T07:28:29.907Z,3.45
2022-08-04T07:33:32.202Z,3.87
2022-08-04T07:38:35.214Z,4.30
2022-08-04T07:43:40.110Z,3.40
2022-08-04T07:48:42.000Z,3.60
2022-08-04T07:53:53.326Z,3.53
2022-08-04T07:58:57.423Z,3.83
2022-08-04T08:04:00.742Z,3.30
2022-08-04T08:09:17.955Z,3.43
2022-08-04T08:14:20.571Z,3.28
2022-08-04T08:19:23.398Z,3.08
2022-08-04T08:24:25.434Z,3.20
2022-08-04T08:29:29.386Z,2.95
2022-08-04T08:34:32.386Z,2.92
2022-08-04T08:39:42.703Z,3.22
2022-08-04T08:45:39.568Z,3.08
2022-08-04T08:50:49.929Z,2.88
2022-08-04T08:56:33.371Z,2.70
2022-08-04T09:01:52.297Z,3.03
2022-08-04T09:07:27.967Z,2.80
2022-08-04T09:12:38.768Z,2.90
2022-08-04T09:18:07.353Z,2.80
2022-08-04T09:23:33.863Z,2.58
2022-08-04T09:29:04.464Z,2.72
2022-08-04T09:34:11.545Z,1.88
2022-08-04T09:39:52.112Z,2.30
2022-08-04T09:45:26.920Z,2.00
2022-08-04T09:50:49.759Z,2.08
2022-08-04T09:56:07.735Z,2.10
2022-08-04T10:01:13.264Z,1.73
2022-08-04T10:06:45.924Z,1.70
2022-08-04T10:12:05.758Z,2.20
2022-08-04T10:17:10.614Z,1.70
2022-08-04T10:22:28.255Z,2.30
2022-08-04T10:27:40.959Z,1.98
2022-08-04T10:32:53.836Z,1.58
2022-08-04T10:38:17.331Z,1.60
2022-08-04T10:43:40.348Z,2.10
2022-08-04T10:49:24.778Z,1.58
2022-08-04T10:54:26.677Z,1.67
2022-08-04T10:59:45.885Z,1.40
2022-08-04T11:05:04.805Z,1.30
2022-08-04T11:10:07.975Z,1.95
2022-08-04T11:15:14.724Z,1.98
2022-08-04T11:20:38.491Z,1.65
2022-08-04T11:26:07.913Z,1.45
2022-08-04T11:31:19.330Z,1.70
2022-08-04T11:36:42.313Z,1.40
2022-08-04T11:42:14.302Z,1.60
2022-08-04T11:47:30.304Z,1.70
2022-08-04T11:52:35.163Z,1.60
2022-08-04T11:57:37.937Z,1.42
2022-08-04T12:02:54.701Z,1.08
2022-08-04T12:08:17.633Z,1.38
2022-08-04T12:13:28.001Z,1.33
2022-08-04T12:18:43.022Z,1.30
2022-08-04T12:23:46.987Z,1.55
2022-08-04T12:29:09.552Z,1.60
2022-08-04T12:34:29.957Z,2.10
2022-08-04T12:39:32.179Z,3.03
2022-08-04T12:44:38.886Z,2.20
2022-08-04T12:50:00.184Z,2.67
2022-08-04T12:55:05.611Z,2.22
2022-08-04T13:00:09.359Z,2.20
2022-08-04T13:10:22.390Z,2.10
2022-08-04T13:15:33.646Z,2.33
2022-08-04T13:20:49.464Z,2.40
2022-08-04T13:26:42.780Z,2.13
2022-08-04T13:31:26.583Z,2.30
2022-08-04T13:36:38.676Z,2.22
2022-08-04T13:41:46.214Z,2.28
2022-08-04T13:47:14.552Z,2.30
2022-08-04T13:52:16.695Z,2.40
2022-08-04T13:57:27.128Z,2.25
2022-08-04T14:03:19.130Z,2.20
2022-08-04T14:08:31.306Z,1.88
2022-08-04T14:13:41.789Z,2.10
2022-08-04T14:18:44.549Z,2.28
2022-08-04T14:23:57.509Z,2.00
2022-08-04T14:29:28.114Z,2.00
2022-08-04T14:34:30.743Z,2.47
2022-08-04T14:39:40.590Z,2.40
2022-08-04T14:44:58.506Z,2.45
2022-08-04T14:50:00.292Z,2.67
2022-08-04T14:55:23.392Z,2.35
2022-08-04T15:00:34.407Z,2.25
2022-08-04T15:05:55.093Z,1.90
2022-08-04T15:11:04.085Z,2.20
2022-08-04T15:16:08.356Z,2.63
2022-08-04T15:21:12.265Z,2.33
2022-08-04T15:26:17.493Z,2.78
2022-08-04T15:32:05.773Z,3.13
2022-08-04T15:36:56.913Z,2.97
2022-08-04T15:42:21.176Z,2.97
2022-08-04T15:47:23.261Z,3.60
2022-08-04T15:52:26.764Z,3.80
2022-08-04T15:58:03.265Z,3.80
2022-08-04T16:03:57.975Z,3.67
2022-08-04T16:09:00.854Z,3.20
2022-08-04T16:14:09.052Z,2.28
2022-08-04T16:19:16.589Z,2.67
2022-08-04T16:24:28.677Z,2.30
2022-08-04T16:29:38.131Z,2.63
2022-08-04T16:34:54.458Z,2.85
2022-08-04T16:40:36.527Z,3.10
2022-08-04T16:45:46.967Z,2.75
2022-08-04T16:51:09.713Z,2.85
2022-08-04T16:56:14.632Z,2.92
2022-08-04T17:01:21.776Z,2.83
2022-08-04T17:06:43.754Z,3.13
2022-08-04T17:11:48.486Z,3.05
2022-08-04T17:16:51.324Z,3.03
2022-08-04T17:22:04.867Z,2.72
2022-08-04T17:28:10.072Z,2.83
2022-08-04T17:32:29.450Z,2.75
2022-08-04T17:37:39.950Z,2.90
2022-08-04T17:42:45.311Z,3.08
2022-08-04T17:53:11.713Z,2.92
2022-08-04T17:58:20.977Z,2.88
2022-08-04T18:03:29.126Z,2.53
2022-08-04T18:08:46.277Z,2.50
2022-08-04T18:13:56.990Z,3.20
2022-08-04T18:19:13.514Z,3.15
2022-08-04T18:24:15.528Z,2.72
2022-08-04T18:29:31.832Z,2.80
2022-08-04T18:34:34.022Z,3.38
2022-08-04T18:40:25.149Z,3.00
2022-08-04T18:44:58.086Z,2.65
2022-08-04T18:55:55.281Z,2.65
2022-08-04T19:00:46.113Z,2.90
2022-08-04T19:05:50.449Z,3.10
2022-08-04T19:10:58.399Z,3.40
2022-08-04T19:16:02.042Z,3.35
2022-08-04T19:31:47.529Z,3.38
2022-08-04T19:36:49.906Z,3.20
2022-08-04T19:42:05.587Z,3.33
2022-08-04T19:48:21.814Z,4.15
2022-08-04T19:52:33.342Z,3.80
2022-08-04T19:57:38.248Z,3.63
2022-08-04T20:02:43.916Z,4.07
2022-08-04T20:07:45.691Z,3.80
2022-08-04T20:12:55.666Z,3.92
2022-08-04T20:18:08.315Z,4.25
2022-08-04T20:23:19.424Z,4.50
2022-08-04T20:28:41.176Z,3.92
2022-08-04T20:34:06.747Z,4.32
2022-08-04T20:39:10.982Z,3.88
2022-08-04T20:44:38.593Z,4.13
2022-08-04T20:49:44.076Z,4.13
2022-08-04T20:54:56.206Z,3.42
2022-08-04T21:00:01.124Z,3.13
2022-08-04T21:05:05.370Z,3.47
2022-08-04T21:10:11.265Z,3.42
2022-08-04T21:15:14.014Z,3.35
2022-08-04T21:20:27.293Z,3.85
2022-08-04T21:25:29.899Z,3.50
2022-08-04T21:30:37.087Z,3.10
2022-08-04T21:35:54.783Z,3.47
2022-08-04T21:41:01.953Z,3.20
2022-08-04T21:46:05.016Z,3.22
2022-08-04T21:51:56.815Z,3.50
2022-08-04T21:56:42.147Z,3.20
2022-08-04T22:01:54.792Z,3.35
2022-08-04T22:06:56.965Z,3.25
2022-08-04T22:11:58.714Z,3.30
2022-08-04T22:17:05.206Z,3.25
2022-08-04T22:22:07.067Z,2.83
2022-08-04T22:32:39.213Z,3.60
2022-08-04T22:37:44.956Z,4.03
2022-08-04T22:43:31.135Z,3.47
2022-08-04T22:48:27.314Z,3.40
2022-08-04T22:53:29.089Z,3.63
2022-08-04T22:58:30.968Z,3.47
2022-08-04T23:03:37.710Z,4.45
2022-08-04T23:08:43.125Z,3.97
2022-08-04T23:13:49.335Z,3.70
2022-08-04T23:18:51.577Z,3.63
2022-08-04T23:24:02.463Z,3.88
2022-08-04T23:29:04.500Z,3.80
2022-08-04T23:34:06.189Z,4.07
2022-08-04T23:39:10.189Z,4.53
2022-08-04T23:44:12.085Z,4.60
2022-08-04T23:49:19.368Z,5.28
2022-08-04T23:54:23.425Z,4.50
2022-08-04T23:59:51.928Z,4.60
